sensor_id;sensor_type;location;lat;lon;timestamp;P1;durP1;ratioP1;P2;durP2;ratioP2
3036;SDS011;1528;52.550;13.408;2024-02-04T00:00:16;17.70;;;16.80;;
3036;SDS011;1528;52.550;13.408;2024-02-04T00:03:02;18.67;;;17.40;;
3036;SDS011;1528;52.550;13.408;2024-02-04T00:05:48;18.93;;;17.60;;
3036;SDS011;1528;52.550;13.408;2024-02-04T00:08:34;15.10;;;14.10;;
3036;SDS011;1528;52.550;13.408;2024-02-04T00:11:19;18.40;;;17.13;;
3036;SDS011;1528;52.550;13.408;2024-02-04T00:14:05;18.23;;;16.60;;
3036;SDS011;1528;52.550;13.408;2024-02-04T00:16:53;17.23;;;15.60;;
3036;SDS011;1528;52.550;13.408;2024-02-04T00:19:38;18.07;;;17.00;;
3036;SDS011;1528;52.550;13.408;2024-02-04T00:22:24;19.03;;;17.73;;
3036;SDS011;1528;52.550;13.408;2024-02-04T00:25:09;18.80;;;17.50;;
3036;SDS011;1528;52.550;13.408;2024-02-04T00:27:55;20.00;;;18.63;;
3036;SDS011;1528;52.550;13.408;2024-02-04T00:30:41;18.83;;;17.40;;
3036;SDS011;1528;52.550;13.408;2024-02-04T00:33:28;17.00;;;15.77;;
3036;SDS011;1528;52.550;13.408;2024-02-04T00:36:13;19.43;;;17.87;;
3036;SDS011;1528;52.550;13.408;2024-02-04T00:39:00;17.40;;;15.93;;
3036;SDS011;1528;52.550;13.408;2024-02-04T00:41:47;14.63;;;13.60;;
3036;SDS011;1528;52.550;13.408;2024-02-04T00:44:32;16.83;;;14.80;;
3036;SDS011;1528;52.550;13.408;2024-02-04T00:47:18;14.50;;;13.47;;
3036;SDS011;1528;52.550;13.408;2024-02-04T00:50:06;15.53;;;14.37;;
3036;SDS011;1528;52.550;13.408;2024-02-04T00:52:52;14.50;;;13.53;;
3036;SDS011;1528;52.550;13.408;2024-02-04T00:55:38;16.47;;;15.30;;
3036;SDS011;1528;52.550;13.408;2024-02-04T00:58:24;14.20;;;13.07;;
3036;SDS011;1528;52.550;13.408;2024-02-04T01:01:09;14.93;;;13.73;;
3036;SDS011;1528;52.550;13.408;2024-02-04T01:03:55;15.80;;;13.80;;
3036;SDS011;1528;52.550;13.408;2024-02-04T01:06:42;16.60;;;15.37;;
3036;SDS011;1528;52.550;13.408;2024-02-04T01:09:27;15.80;;;14.60;;
3036;SDS011;1528;52.550;13.408;2024-02-04T01:12:13;18.53;;;16.90;;
3036;SDS011;1528;52.550;13.408;2024-02-04T01:14:58;16.90;;;15.00;;
3036;SDS011;1528;52.550;13.408;2024-02-04T01:17:45;19.13;;;17.83;;
3036;SDS011;1528;52.550;13.408;2024-02-04T01:20:30;18.80;;;17.27;;
3036;SDS011;1528;52.550;13.408;2024-02-04T01:23:17;16.50;;;14.83;;
3036;SDS011;1528;52.550;13.408;2024-02-04T01:26:03;17.67;;;16.57;;
3036;SDS011;1528;52.550;13.408;2024-02-04T01:28:49;15.97;;;14.47;;
3036;SDS011;1528;52.550;13.408;2024-02-04T01:31:35;17.67;;;15.90;;
3036;SDS011;1528;52.550;13.408;2024-02-04T01:34:20;17.27;;;15.50;;
3036;SDS011;1528;52.550;13.408;2024-02-04T01:37:06;16.50;;;14.70;;
3036;SDS011;1528;52.550;13.408;2024-02-04T01:39:53;15.27;;;13.83;;
3036;SDS011;1528;52.550;13.408;2024-02-04T01:42:39;14.57;;;13.10;;
3036;SDS011;1528;52.550;13.408;2024-02-04T01:45:25;14.03;;;12.67;;
3036;SDS011;1528;52.550;13.408;2024-02-04T01:48:10;16.23;;;14.83;;
3036;SDS011;1528;52.550;13.408;2024-02-04T01:50:58;14.87;;;13.80;;
3036;SDS011;1528;52.550;13.408;2024-02-04T01:53:45;14.93;;;13.90;;
3036;SDS011;1528;52.550;13.408;2024-02-04T01:56:32;16.77;;;13.00;;
3036;SDS011;1528;52.550;13.408;2024-02-04T01:59:18;15.77;;;14.23;;
3036;SDS011;1528;52.550;13.408;2024-02-04T02:02:04;14.07;;;12.90;;
3036;SDS011;1528;52.550;13.408;2024-02-04T02:04:51;15.70;;;12.73;;
3036;SDS011;1528;52.550;13.408;2024-02-04T02:07:36;15.10;;;13.80;;
3036;SDS011;1528;52.550;13.408;2024-02-04T02:10:22;14.70;;;12.43;;
3036;SDS011;1528;52.550;13.408;2024-02-04T02:13:11;16.73;;;14.67;;
3036;SDS011;1528;52.550;13.408;2024-02-04T02:16:02;16.67;;;15.37;;
3036;SDS011;1528;52.550;13.408;2024-02-04T02:18:52;16.47;;;15.30;;
3036;SDS011;1528;52.550;13.408;2024-02-04T02:21:47;16.23;;;14.83;;
3036;SDS011;1528;52.550;13.408;2024-02-04T02:24:39;16.83;;;15.43;;
3036;SDS011;1528;52.550;13.408;2024-02-04T02:27:27;18.73;;;16.53;;
3036;SDS011;1528;52.550;13.408;2024-02-04T02:30:12;17.03;;;14.47;;
3036;SDS011;1528;52.550;13.408;2024-02-04T02:32:59;17.50;;;16.30;;
3036;SDS011;1528;52.550;13.408;2024-02-04T02:35:44;16.23;;;14.63;;
3036;SDS011;1528;52.550;13.408;2024-02-04T02:38:36;18.70;;;17.30;;
3036;SDS011;1528;52.550;13.408;2024-02-04T02:41:27;19.50;;;17.67;;
3036;SDS011;1528;52.550;13.408;2024-02-04T02:44:15;22.13;;;19.47;;
3036;SDS011;1528;52.550;13.408;2024-02-04T02:47:01;21.93;;;20.43;;
3036;SDS011;1528;52.550;13.408;2024-02-04T02:49:47;17.70;;;16.27;;
3036;SDS011;1528;52.550;13.408;2024-02-04T02:52:35;20.77;;;19.00;;
3036;SDS011;1528;52.550;13.408;2024-02-04T02:55:20;19.93;;;18.03;;
3036;SDS011;1528;52.550;13.408;2024-02-04T02:58:07;21.07;;;19.17;;
3036;SDS011;1528;52.550;13.408;2024-02-04T03:00:53;15.57;;;14.17;;
3036;SDS011;1528;52.550;13.408;2024-02-04T03:03:39;15.37;;;14.37;;
3036;SDS011;1528;52.550;13.408;2024-02-04T03:06:24;16.07;;;14.67;;
3036;SDS011;1528;52.550;13.408;2024-02-04T03:09:10;19.23;;;17.53;;
3036;SDS011;1528;52.550;13.408;2024-02-04T03:11:56;16.73;;;15.43;;
3036;SDS011;1528;52.550;13.408;2024-02-04T03:14:43;16.37;;;15.00;;
3036;SDS011;1528;52.550;13.408;2024-02-04T03:17:29;17.30;;;15.70;;
3036;SDS011;1528;52.550;13.408;2024-02-04T03:20:14;15.50;;;14.43;;
3036;SDS011;1528;52.550;13.408;2024-02-04T03:23:00;17.40;;;16.50;;
3036;SDS011;1528;52.550;13.408;2024-02-04T03:25:45;17.23;;;15.80;;
3036;SDS011;1528;52.550;13.408;2024-02-04T03:28:31;15.43;;;14.40;;
3036;SDS011;1528;52.550;13.408;2024-02-04T03:31:20;16.97;;;15.87;;
3036;SDS011;1528;52.550;13.408;2024-02-04T03:34:06;16.87;;;15.57;;
3036;SDS011;1528;52.550;13.408;2024-02-04T03:36:52;22.70;;;21.00;;
3036;SDS011;1528;52.550;13.408;2024-02-04T03:39:38;19.87;;;18.63;;
3036;SDS011;1528;52.550;13.408;2024-02-04T03:42:24;18.20;;;16.53;;
3036;SDS011;1528;52.550;13.408;2024-02-04T03:45:09;19.07;;;17.80;;
3036;SDS011;1528;52.550;13.408;2024-02-04T03:47:56;19.00;;;17.70;;
3036;SDS011;1528;52.550;13.408;2024-02-04T03:50:42;19.30;;;18.10;;
3036;SDS011;1528;52.550;13.408;2024-02-04T03:53:27;19.10;;;17.83;;
3036;SDS011;1528;52.550;13.408;2024-02-04T03:56:13;21.63;;;20.10;;
3036;SDS011;1528;52.550;13.408;2024-02-04T03:58:59;19.30;;;18.20;;
3036;SDS011;1528;52.550;13.408;2024-02-04T04:01:46;19.33;;;18.13;;
3036;SDS011;1528;52.550;13.408;2024-02-04T04:04:34;18.77;;;17.33;;
3036;SDS011;1528;52.550;13.408;2024-02-04T04:07:20;17.50;;;16.53;;
3036;SDS011;1528;52.550;13.408;2024-02-04T04:10:05;16.03;;;14.97;;
3036;SDS011;1528;52.550;13.408;2024-02-04T04:12:51;15.93;;;14.80;;
3036;SDS011;1528;52.550;13.408;2024-02-04T04:15:37;17.57;;;16.47;;
3036;SDS011;1528;52.550;13.408;2024-02-04T04:18:23;15.80;;;14.80;;
3036;SDS011;1528;52.550;13.408;2024-02-04T04:21:10;16.67;;;15.57;;
3036;SDS011;1528;52.550;13.408;2024-02-04T04:23:55;17.70;;;16.33;;
3036;SDS011;1528;52.550;13.408;2024-02-04T04:26:41;13.93;;;13.03;;
3036;SDS011;1528;52.550;13.408;2024-02-04T04:29:27;15.47;;;14.37;;
3036;SDS011;1528;52.550;13.408;2024-02-04T04:32:12;14.27;;;13.37;;
3036;SDS011;1528;52.550;13.408;2024-02-04T04:34:58;17.47;;;16.03;;
3036;SDS011;1528;52.550;13.408;2024-02-04T04:37:45;17.10;;;15.77;;
3036;SDS011;1528;52.550;13.408;2024-02-04T04:40:31;19.10;;;17.80;;
3036;SDS011;1528;52.550;13.408;2024-02-04T04:43:16;15.63;;;14.53;;
3036;SDS011;1528;52.550;13.408;2024-02-04T04:46:02;17.70;;;16.53;;
3036;SDS011;1528;52.550;13.408;2024-02-04T04:48:47;16.97;;;15.90;;
3036;SDS011;1528;52.550;13.408;2024-02-04T04:51:33;15.53;;;14.37;;
3036;SDS011;1528;52.550;13.408;2024-02-04T04:54:20;15.00;;;13.83;;
3036;SDS011;1528;52.550;13.408;2024-02-04T04:57:06;16.20;;;15.30;;
3036;SDS011;1528;52.550;13.408;2024-02-04T04:59:51;19.43;;;17.70;;
3036;SDS011;1528;52.550;13.408;2024-02-04T05:02:37;16.23;;;15.10;;
3036;SDS011;1528;52.550;13.408;2024-02-04T05:05:24;18.63;;;17.10;;
3036;SDS011;1528;52.550;13.408;2024-02-04T05:08:11;16.43;;;15.63;;
3036;SDS011;1528;52.550;13.408;2024-02-04T05:10:59;15.40;;;14.50;;
3036;SDS011;1528;52.550;13.408;2024-02-04T05:13:44;16.03;;;15.13;;
3036;SDS011;1528;52.550;13.408;2024-02-04T05:16:30;15.73;;;14.43;;
3036;SDS011;1528;52.550;13.408;2024-02-04T05:19:15;14.10;;;13.10;;
3036;SDS011;1528;52.550;13.408;2024-02-04T05:22:01;14.60;;;13.53;;
3036;SDS011;1528;52.550;13.408;2024-02-04T05:24:47;14.90;;;13.97;;
3036;SDS011;1528;52.550;13.408;2024-02-04T05:27:33;15.63;;;14.73;;
3036;SDS011;1528;52.550;13.408;2024-02-04T05:30:20;17.63;;;16.80;;
3036;SDS011;1528;52.550;13.408;2024-02-04T05:33:06;12.70;;;12.00;;
3036;SDS011;1528;52.550;13.408;2024-02-04T05:35:51;14.73;;;13.93;;
3036;SDS011;1528;52.550;13.408;2024-02-04T05:38:37;14.47;;;13.77;;
3036;SDS011;1528;52.550;13.408;2024-02-04T05:41:22;14.10;;;13.33;;
3036;SDS011;1528;52.550;13.408;2024-02-04T05:44:09;17.27;;;16.07;;
3036;SDS011;1528;52.550;13.408;2024-02-04T05:46:55;16.33;;;15.30;;
3036;SDS011;1528;52.550;13.408;2024-02-04T05:49:41;14.40;;;13.50;;
3036;SDS011;1528;52.550;13.408;2024-02-04T05:52:27;14.77;;;13.60;;
3036;SDS011;1528;52.550;13.408;2024-02-04T05:55:12;12.97;;;12.07;;
3036;SDS011;1528;52.550;13.408;2024-02-04T05:57:58;15.30;;;14.07;;
3036;SDS011;1528;52.550;13.408;2024-02-04T06:00:45;14.80;;;13.70;;
3036;SDS011;1528;52.550;13.408;2024-02-04T06:03:30;14.10;;;13.00;;
3036;SDS011;1528;52.550;13.408;2024-02-04T06:06:16;13.43;;;12.50;;
3036;SDS011;1528;52.550;13.408;2024-02-04T06:09:03;14.87;;;13.70;;
3036;SDS011;1528;52.550;13.408;2024-02-04T06:11:50;15.00;;;13.77;;
3036;SDS011;1528;52.550;13.408;2024-02-04T06:14:35;14.90;;;14.00;;
3036;SDS011;1528;52.550;13.408;2024-02-04T06:17:25;14.23;;;12.87;;
3036;SDS011;1528;52.550;13.408;2024-02-04T06:20:10;15.10;;;13.90;;
3036;SDS011;1528;52.550;13.408;2024-02-04T06:22:56;18.33;;;17.43;;
3036;SDS011;1528;52.550;13.408;2024-02-04T06:25:42;17.67;;;16.73;;
3036;SDS011;1528;52.550;13.408;2024-02-04T06:28:27;17.13;;;16.03;;
3036;SDS011;1528;52.550;13.408;2024-02-04T06:31:13;16.57;;;15.33;;
3036;SDS011;1528;52.550;13.408;2024-02-04T06:34:00;16.90;;;15.73;;
3036;SDS011;1528;52.550;13.408;2024-02-04T06:36:46;15.93;;;14.90;;
3036;SDS011;1528;52.550;13.408;2024-02-04T06:39:31;15.53;;;14.30;;
3036;SDS011;1528;52.550;13.408;2024-02-04T06:42:17;17.60;;;16.27;;
3036;SDS011;1528;52.550;13.408;2024-02-04T06:45:03;16.47;;;15.47;;
3036;SDS011;1528;52.550;13.408;2024-02-04T06:47:49;16.60;;;15.50;;
3036;SDS011;1528;52.550;13.408;2024-02-04T06:50:36;16.77;;;15.70;;
3036;SDS011;1528;52.550;13.408;2024-02-04T06:53:22;17.77;;;16.77;;
3036;SDS011;1528;52.550;13.408;2024-02-04T06:56:07;17.60;;;16.50;;
3036;SDS011;1528;52.550;13.408;2024-02-04T06:58:53;15.57;;;14.47;;
3036;SDS011;1528;52.550;13.408;2024-02-04T07:01:38;19.80;;;18.73;;
3036;SDS011;1528;52.550;13.408;2024-02-04T07:04:24;18.27;;;17.00;;
3036;SDS011;1528;52.550;13.408;2024-02-04T07:07:11;17.67;;;16.67;;
3036;SDS011;1528;52.550;13.408;2024-02-04T07:09:56;20.13;;;18.90;;
3036;SDS011;1528;52.550;13.408;2024-02-04T07:12:43;37.17;;;34.20;;
3036;SDS011;1528;52.550;13.408;2024-02-04T07:15:28;26.90;;;25.30;;
3036;SDS011;1528;52.550;13.408;2024-02-04T07:18:14;20.20;;;18.70;;
3036;SDS011;1528;52.550;13.408;2024-02-04T07:21:01;19.77;;;18.50;;
3036;SDS011;1528;52.550;13.408;2024-02-04T07:23:48;18.20;;;16.73;;
3036;SDS011;1528;52.550;13.408;2024-02-04T07:26:33;16.50;;;15.20;;
3036;SDS011;1528;52.550;13.408;2024-02-04T07:29:19;16.43;;;15.47;;
3036;SDS011;1528;52.550;13.408;2024-02-04T07:32:04;18.10;;;16.80;;
3036;SDS011;1528;52.550;13.408;2024-02-04T07:34:50;17.53;;;16.37;;
3036;SDS011;1528;52.550;13.408;2024-02-04T07:37:36;16.77;;;15.67;;
3036;SDS011;1528;52.550;13.408;2024-02-04T07:40:22;18.80;;;17.63;;
3036;SDS011;1528;52.550;13.408;2024-02-04T07:43:08;18.57;;;17.17;;
3036;SDS011;1528;52.550;13.408;2024-02-04T07:45:54;17.23;;;16.03;;
3036;SDS011;1528;52.550;13.408;2024-02-04T07:48:39;18.47;;;17.30;;
3036;SDS011;1528;52.550;13.408;2024-02-04T07:51:25;17.67;;;16.10;;
3036;SDS011;1528;52.550;13.408;2024-02-04T07:54:11;19.87;;;18.57;;
3036;SDS011;1528;52.550;13.408;2024-02-04T07:56:59;17.13;;;16.23;;
3036;SDS011;1528;52.550;13.408;2024-02-04T07:59:44;21.73;;;19.67;;
3036;SDS011;1528;52.550;13.408;2024-02-04T08:02:30;17.17;;;16.03;;
3036;SDS011;1528;52.550;13.408;2024-02-04T08:05:16;18.30;;;16.87;;
3036;SDS011;1528;52.550;13.408;2024-02-04T08:08:01;18.63;;;17.10;;
3036;SDS011;1528;52.550;13.408;2024-02-04T08:10:47;19.00;;;17.60;;
3036;SDS011;1528;52.550;13.408;2024-02-04T08:13:34;15.73;;;14.50;;
3036;SDS011;1528;52.550;13.408;2024-02-04T08:16:19;17.13;;;15.90;;
3036;SDS011;1528;52.550;13.408;2024-02-04T08:19:06;18.77;;;17.17;;
3036;SDS011;1528;52.550;13.408;2024-02-04T08:21:51;17.03;;;15.47;;
3036;SDS011;1528;52.550;13.408;2024-02-04T08:24:37;17.00;;;16.00;;
3036;SDS011;1528;52.550;13.408;2024-02-04T08:27:23;17.53;;;16.27;;
3036;SDS011;1528;52.550;13.408;2024-02-04T08:30:10;17.20;;;15.40;;
3036;SDS011;1528;52.550;13.408;2024-02-04T08:32:56;17.47;;;16.37;;
3036;SDS011;1528;52.550;13.408;2024-02-04T08:35:42;14.70;;;13.90;;
3036;SDS011;1528;52.550;13.408;2024-02-04T08:38:27;18.10;;;16.83;;
3036;SDS011;1528;52.550;13.408;2024-02-04T08:41:13;18.33;;;17.13;;
3036;SDS011;1528;52.550;13.408;2024-02-04T08:43:59;16.50;;;15.50;;
3036;SDS011;1528;52.550;13.408;2024-02-04T08:46:46;16.50;;;15.40;;
3036;SDS011;1528;52.550;13.408;2024-02-04T08:49:32;16.73;;;15.60;;
3036;SDS011;1528;52.550;13.408;2024-02-04T08:52:17;15.07;;;14.07;;
3036;SDS011;1528;52.550;13.408;2024-02-04T08:55:03;15.07;;;13.60;;
3036;SDS011;1528;52.550;13.408;2024-02-04T08:57:49;16.30;;;15.20;;
3036;SDS011;1528;52.550;13.408;2024-02-04T09:00:36;15.00;;;13.73;;
3036;SDS011;1528;52.550;13.408;2024-02-04T09:03:23;17.47;;;16.27;;
3036;SDS011;1528;52.550;13.408;2024-02-04T09:06:09;17.60;;;16.40;;
3036;SDS011;1528;52.550;13.408;2024-02-04T09:08:54;14.53;;;13.40;;
3036;SDS011;1528;52.550;13.408;2024-02-04T09:11:40;18.17;;;17.13;;
3036;SDS011;1528;52.550;13.408;2024-02-04T09:14:26;16.20;;;15.30;;
3036;SDS011;1528;52.550;13.408;2024-02-04T09:17:11;15.30;;;14.40;;
3036;SDS011;1528;52.550;13.408;2024-02-04T09:19:58;16.53;;;15.27;;
3036;SDS011;1528;52.550;13.408;2024-02-04T09:22:44;16.73;;;15.60;;
3036;SDS011;1528;52.550;13.408;2024-02-04T09:25:30;17.73;;;16.87;;
3036;SDS011;1528;52.550;13.408;2024-02-04T09:28:15;14.87;;;13.70;;
3036;SDS011;1528;52.550;13.408;2024-02-04T09:31:01;16.90;;;16.00;;
3036;SDS011;1528;52.550;13.408;2024-02-04T09:33:47;17.13;;;16.13;;
3036;SDS011;1528;52.550;13.408;2024-02-04T09:36:34;16.17;;;15.17;;
3036;SDS011;1528;52.550;13.408;2024-02-04T09:39:19;16.77;;;15.43;;
3036;SDS011;1528;52.550;13.408;2024-02-04T09:42:05;18.57;;;17.20;;
3036;SDS011;1528;52.550;13.408;2024-02-04T09:44:50;15.07;;;13.63;;
3036;SDS011;1528;52.550;13.408;2024-02-04T09:47:37;16.57;;;15.37;;
3036;SDS011;1528;52.550;13.408;2024-02-04T09:50:25;17.07;;;15.87;;
3036;SDS011;1528;52.550;13.408;2024-02-04T09:53:12;15.50;;;14.43;;
3036;SDS011;1528;52.550;13.408;2024-02-04T09:56:05;14.97;;;13.80;;
3036;SDS011;1528;52.550;13.408;2024-02-04T09:58:51;14.53;;;13.43;;
3036;SDS011;1528;52.550;13.408;2024-02-04T10:01:37;15.00;;;14.10;;
3036;SDS011;1528;52.550;13.408;2024-02-04T10:04:23;15.00;;;14.20;;
3036;SDS011;1528;52.550;13.408;2024-02-04T10:07:09;14.20;;;13.20;;
3036;SDS011;1528;52.550;13.408;2024-02-04T10:09:56;14.67;;;13.63;;
3036;SDS011;1528;52.550;13.408;2024-02-04T10:12:41;15.47;;;13.97;;
3036;SDS011;1528;52.550;13.408;2024-02-04T10:15:30;17.90;;;16.80;;
3036;SDS011;1528;52.550;13.408;2024-02-04T10:18:16;18.23;;;17.23;;
3036;SDS011;1528;52.550;13.408;2024-02-04T10:21:02;19.30;;;18.20;;
3036;SDS011;1528;52.550;13.408;2024-02-04T10:23:48;20.37;;;18.93;;
3036;SDS011;1528;52.550;13.408;2024-02-04T10:26:36;16.60;;;15.87;;
3036;SDS011;1528;52.550;13.408;2024-02-04T10:29:24;17.23;;;16.30;;
3036;SDS011;1528;52.550;13.408;2024-02-04T10:32:10;16.03;;;14.60;;
3036;SDS011;1528;52.550;13.408;2024-02-04T10:34:57;14.47;;;13.43;;
3036;SDS011;1528;52.550;13.408;2024-02-04T10:37:43;18.40;;;16.90;;
3036;SDS011;1528;52.550;13.408;2024-02-04T10:40:28;17.13;;;16.30;;
3036;SDS011;1528;52.550;13.408;2024-02-04T10:43:15;16.80;;;15.60;;
3036;SDS011;1528;52.550;13.408;2024-02-04T10:46:03;15.60;;;14.70;;
3036;SDS011;1528;52.550;13.408;2024-02-04T10:48:55;14.67;;;13.87;;
3036;SDS011;1528;52.550;13.408;2024-02-04T10:51:42;20.97;;;19.87;;
3036;SDS011;1528;52.550;13.408;2024-02-04T10:54:30;18.30;;;17.37;;
3036;SDS011;1528;52.550;13.408;2024-02-04T10:57:20;15.90;;;14.83;;
3036;SDS011;1528;52.550;13.408;2024-02-04T11:00:08;18.43;;;17.47;;
3036;SDS011;1528;52.550;13.408;2024-02-04T11:02:55;17.00;;;16.10;;
3036;SDS011;1528;52.550;13.408;2024-02-04T11:05:42;13.97;;;13.13;;
3036;SDS011;1528;52.550;13.408;2024-02-04T11:08:29;17.33;;;16.13;;
3036;SDS011;1528;52.550;13.408;2024-02-04T11:11:15;17.23;;;16.37;;
3036;SDS011;1528;52.550;13.408;2024-02-04T11:14:02;14.13;;;12.97;;
3036;SDS011;1528;52.550;13.408;2024-02-04T11:20:07;17.50;;;16.40;;
3036;SDS011;1528;52.550;13.408;2024-02-04T11:23:07;17.73;;;17.00;;
3036;SDS011;1528;52.550;13.408;2024-02-04T11:26:07;15.00;;;14.07;;
3036;SDS011;1528;52.550;13.408;2024-02-04T11:28:53;13.87;;;13.10;;
3036;SDS011;1528;52.550;13.408;2024-02-04T11:31:39;16.93;;;15.60;;
3036;SDS011;1528;52.550;13.408;2024-02-04T11:34:27;15.87;;;14.80;;
3036;SDS011;1528;52.550;13.408;2024-02-04T11:37:14;17.20;;;16.13;;
3036;SDS011;1528;52.550;13.408;2024-02-04T11:40:03;19.00;;;17.77;;
3036;SDS011;1528;52.550;13.408;2024-02-04T11:42:49;19.40;;;18.10;;
3036;SDS011;1528;52.550;13.408;2024-02-04T11:45:37;15.70;;;14.70;;
3036;SDS011;1528;52.550;13.408;2024-02-04T11:48:28;17.03;;;15.93;;
3036;SDS011;1528;52.550;13.408;2024-02-04T11:51:16;15.03;;;14.00;;
3036;SDS011;1528;52.550;13.408;2024-02-04T11:54:02;16.97;;;15.80;;
3036;SDS011;1528;52.550;13.408;2024-02-04T11:56:48;19.03;;;17.77;;
3036;SDS011;1528;52.550;13.408;2024-02-04T11:59:36;17.63;;;16.73;;
3036;SDS011;1528;52.550;13.408;2024-02-04T12:02:22;18.63;;;17.63;;
3036;SDS011;1528;52.550;13.408;2024-02-04T12:05:07;17.30;;;15.90;;
3036;SDS011;1528;52.550;13.408;2024-02-04T12:07:54;13.23;;;12.40;;
3036;SDS011;1528;52.550;13.408;2024-02-04T12:10:40;12.70;;;11.87;;
3036;SDS011;1528;52.550;13.408;2024-02-04T12:13:27;12.87;;;11.97;;
3036;SDS011;1528;52.550;13.408;2024-02-04T12:16:13;16.60;;;15.60;;
3036;SDS011;1528;52.550;13.408;2024-02-04T12:18:59;15.23;;;14.40;;
3036;SDS011;1528;52.550;13.408;2024-02-04T12:21:44;15.67;;;14.50;;
3036;SDS011;1528;52.550;13.408;2024-02-04T12:24:31;13.77;;;12.77;;
3036;SDS011;1528;52.550;13.408;2024-02-04T12:27:17;12.80;;;12.00;;
3036;SDS011;1528;52.550;13.408;2024-02-04T12:30:03;13.40;;;12.43;;
3036;SDS011;1528;52.550;13.408;2024-02-04T12:32:55;12.27;;;11.27;;
3036;SDS011;1528;52.550;13.408;2024-02-04T12:35:41;12.87;;;11.93;;
3036;SDS011;1528;52.550;13.408;2024-02-04T12:38:27;13.80;;;12.67;;
3036;SDS011;1528;52.550;13.408;2024-02-04T12:41:14;16.00;;;14.60;;
3036;SDS011;1528;52.550;13.408;2024-02-04T12:43:59;14.50;;;13.80;;
3036;SDS011;1528;52.550;13.408;2024-02-04T12:46:49;15.73;;;14.57;;
3036;SDS011;1528;52.550;13.408;2024-02-04T12:49:36;13.70;;;12.90;;
3036;SDS011;1528;52.550;13.408;2024-02-04T12:52:21;14.47;;;13.57;;
3036;SDS011;1528;52.550;13.408;2024-02-04T12:55:07;17.07;;;15.90;;
3036;SDS011;1528;52.550;13.408;2024-02-04T12:58:02;18.10;;;16.87;;
3036;SDS011;1528;52.550;13.408;2024-02-04T13:00:48;14.73;;;13.83;;
3036;SDS011;1528;52.550;13.408;2024-02-04T13:03:44;14.93;;;13.83;;
3036;SDS011;1528;52.550;13.408;2024-02-04T13:06:37;16.43;;;15.33;;
3036;SDS011;1528;52.550;13.408;2024-02-04T13:09:23;14.20;;;12.80;;
3036;SDS011;1528;52.550;13.408;2024-02-04T13:12:09;13.47;;;12.77;;
3036;SDS011;1528;52.550;13.408;2024-02-04T13:14:56;14.80;;;13.90;;
3036;SDS011;1528;52.550;13.408;2024-02-04T13:17:42;13.77;;;12.93;;
3036;SDS011;1528;52.550;13.408;2024-02-04T13:20:28;13.97;;;13.20;;
3036;SDS011;1528;52.550;13.408;2024-02-04T13:23:14;14.63;;;13.83;;
3036;SDS011;1528;52.550;13.408;2024-02-04T13:25:59;13.97;;;12.97;;
3036;SDS011;1528;52.550;13.408;2024-02-04T13:28:45;16.83;;;15.20;;
3036;SDS011;1528;52.550;13.408;2024-02-04T13:31:33;13.57;;;12.67;;
3036;SDS011;1528;52.550;13.408;2024-02-04T13:34:18;12.30;;;11.47;;
3036;SDS011;1528;52.550;13.408;2024-02-04T13:37:04;14.70;;;13.47;;
3036;SDS011;1528;52.550;13.408;2024-02-04T13:39:49;13.57;;;12.37;;
3036;SDS011;1528;52.550;13.408;2024-02-04T13:42:35;13.60;;;12.90;;
3036;SDS011;1528;52.550;13.408;2024-02-04T13:45:21;14.57;;;13.67;;
3036;SDS011;1528;52.550;13.408;2024-02-04T13:48:08;14.70;;;13.50;;
3036;SDS011;1528;52.550;13.408;2024-02-04T13:50:53;15.63;;;14.70;;
3036;SDS011;1528;52.550;13.408;2024-02-04T13:53:39;14.97;;;13.73;;
3036;SDS011;1528;52.550;13.408;2024-02-04T13:56:25;16.07;;;14.90;;
3036;SDS011;1528;52.550;13.408;2024-02-04T13:59:10;12.70;;;11.87;;
3036;SDS011;1528;52.550;13.408;2024-02-04T14:01:56;15.63;;;14.43;;
3036;SDS011;1528;52.550;13.408;2024-02-04T14:04:43;14.73;;;13.53;;
3036;SDS011;1528;52.550;13.408;2024-02-04T14:07:28;12.60;;;11.73;;
3036;SDS011;1528;52.550;13.408;2024-02-04T14:10:14;15.33;;;13.93;;
3036;SDS011;1528;52.550;13.408;2024-02-04T14:13:00;12.77;;;11.90;;
3036;SDS011;1528;52.550;13.408;2024-02-04T14:15:45;14.33;;;13.50;;
3036;SDS011;1528;52.550;13.408;2024-02-04T14:18:31;14.53;;;13.30;;
3036;SDS011;1528;52.550;13.408;2024-02-04T14:21:18;15.70;;;14.43;;
3036;SDS011;1528;52.550;13.408;2024-02-04T14:24:04;15.90;;;15.00;;
3036;SDS011;1528;52.550;13.408;2024-02-04T14:26:55;12.73;;;11.90;;
3036;SDS011;1528;52.550;13.408;2024-02-04T14:29:41;13.77;;;12.70;;
3036;SDS011;1528;52.550;13.408;2024-02-04T14:32:27;15.30;;;13.90;;
3036;SDS011;1528;52.550;13.408;2024-02-04T14:35:13;14.83;;;13.93;;
3036;SDS011;1528;52.550;13.408;2024-02-04T14:38:01;15.30;;;14.30;;
3036;SDS011;1528;52.550;13.408;2024-02-04T14:40:46;16.20;;;15.30;;
3036;SDS011;1528;52.550;13.408;2024-02-04T14:43:32;14.13;;;13.13;;
3036;SDS011;1528;52.550;13.408;2024-02-04T14:46:18;14.40;;;13.00;;
3036;SDS011;1528;52.550;13.408;2024-02-04T14:49:04;14.37;;;13.47;;
3036;SDS011;1528;52.550;13.408;2024-02-04T14:51:49;16.83;;;15.50;;
3036;SDS011;1528;52.550;13.408;2024-02-04T14:54:36;14.73;;;13.73;;
3036;SDS011;1528;52.550;13.408;2024-02-04T14:57:23;18.03;;;16.77;;
3036;SDS011;1528;52.550;13.408;2024-02-04T15:00:08;15.77;;;14.87;;
3036;SDS011;1528;52.550;13.408;2024-02-04T15:02:55;15.10;;;13.90;;
3036;SDS011;1528;52.550;13.408;2024-02-04T15:05:41;14.50;;;13.07;;
3036;SDS011;1528;52.550;13.408;2024-02-04T15:08:26;13.87;;;12.90;;
3036;SDS011;1528;52.550;13.408;2024-02-04T15:11:13;14.13;;;13.03;;
3036;SDS011;1528;52.550;13.408;2024-02-04T15:13:59;14.20;;;13.20;;
3036;SDS011;1528;52.550;13.408;2024-02-04T15:16:45;15.50;;;14.40;;
3036;SDS011;1528;52.550;13.408;2024-02-04T15:19:31;13.93;;;12.90;;
3036;SDS011;1528;52.550;13.408;2024-02-04T15:22:20;14.43;;;13.33;;
3036;SDS011;1528;52.550;13.408;2024-02-04T15:25:07;13.30;;;12.30;;
3036;SDS011;1528;52.550;13.408;2024-02-04T15:27:55;13.07;;;12.17;;
3036;SDS011;1528;52.550;13.408;2024-02-04T15:30:41;15.80;;;12.77;;
3036;SDS011;1528;52.550;13.408;2024-02-04T15:33:27;14.90;;;13.33;;
3036;SDS011;1528;52.550;13.408;2024-02-04T15:36:13;13.60;;;12.70;;
3036;SDS011;1528;52.550;13.408;2024-02-04T15:38:59;15.90;;;14.70;;
3036;SDS011;1528;52.550;13.408;2024-02-04T15:41:45;13.70;;;12.90;;
3036;SDS011;1528;52.550;13.408;2024-02-04T15:44:32;14.40;;;13.60;;
3036;SDS011;1528;52.550;13.408;2024-02-04T15:47:19;12.70;;;11.40;;
3036;SDS011;1528;52.550;13.408;2024-02-04T15:50:07;13.00;;;12.27;;
3036;SDS011;1528;52.550;13.408;2024-02-04T15:52:54;12.17;;;11.27;;
3036;SDS011;1528;52.550;13.408;2024-02-04T15:55:40;12.43;;;11.60;;
3036;SDS011;1528;52.550;13.408;2024-02-04T15:58:26;13.27;;;12.40;;
3036;SDS011;1528;52.550;13.408;2024-02-04T16:01:15;12.47;;;11.37;;
3036;SDS011;1528;52.550;13.408;2024-02-04T16:04:04;13.30;;;12.30;;
3036;SDS011;1528;52.550;13.408;2024-02-04T16:06:50;14.00;;;12.70;;
3036;SDS011;1528;52.550;13.408;2024-02-04T16:09:36;14.07;;;12.70;;
3036;SDS011;1528;52.550;13.408;2024-02-04T16:12:24;14.13;;;13.13;;
3036;SDS011;1528;52.550;13.408;2024-02-04T16:15:11;15.10;;;13.97;;
3036;SDS011;1528;52.550;13.408;2024-02-04T16:17:59;14.20;;;13.13;;
3036;SDS011;1528;52.550;13.408;2024-02-04T16:20:45;13.60;;;12.70;;
3036;SDS011;1528;52.550;13.408;2024-02-04T16:23:30;13.53;;;12.53;;
3036;SDS011;1528;52.550;13.408;2024-02-04T16:26:17;13.80;;;12.90;;
3036;SDS011;1528;52.550;13.408;2024-02-04T16:29:06;13.20;;;12.27;;